Time;durP1;ratioP1;P1;durP2;ratioP2;P2;SDS_P1;SDS_P2;PMS_P1;PMS_P2;Temp;Humidity;BMP_temperature;BMP_pressure;BME280_temperature;BME280_humidity;BME280_pressure;Samples;Min_cycle;Max_cycle;Signal;HPM_P1;HPM_P2
2023/07/20 00:00:26;;;;;;;8.27;4.57;;;21.60;99.90;;;;;;4179450;28;20028;-64
2023/07/20 00:02:27;;;;;;;9.32;4.78;;;21.50;99.90;;;;;;4180040;28;20029;-63
2023/07/20 00:04:28;;;;;;;7.82;4.55;;;21.40;99.90;;;;;;4179330;28;20033;-63
2023/07/20 00:06:29;;;;;;;9.15;4.57;;;21.40;99.90;;;;;;4178450;28;20539;-63
2023/07/20 00:08:30;;;;;;;6.68;4.40;;;21.40;99.90;;;;;;4159809;28;20049;-63
2023/07/20 00:10:31;;;;;;;10.75;4.82;;;21.40;99.90;;;;;;4178965;28;20048;-65
2023/07/20 00:12:32;;;;;;;8.10;4.45;;;21.40;99.90;;;;;;4179992;28;20518;-63
2023/07/20 00:14:34;;;;;;;6.38;4.30;;;21.40;99.90;;;;;;4178664;28;20427;-63
2023/07/20 00:16:35;;;;;;;7.32;4.05;;;21.40;99.90;;;;;;4180363;28;20067;-63
2023/07/20 00:18:36;;;;;;;6.60;4.13;;;21.40;99.90;;;;;;4179359;28;20029;-64
2023/07/20 00:20:37;;;;;;;4.70;3.95;;;21.30;99.90;;;;;;4179694;28;20056;-63
2023/07/20 00:22:38;;;;;;;9.35;4.00;;;21.30;99.90;;;;;;4178159;28;20083;-63
2023/07/20 00:24:39;;;;;;;8.15;3.95;;;21.30;99.90;;;;;;4179282;28;20021;-63
2023/07/20 00:26:40;;;;;;;9.60;4.30;;;21.30;99.90;;;;;;4177884;28;20090;-64
2023/07/20 00:28:42;;;;;;;8.80;3.78;;;21.30;99.90;;;;;;4178525;28;20037;-63
2023/07/20 00:30:43;;;;;;;6.32;3.80;;;21.30;99.90;;;;;;4177837;28;20178;-68
2023/07/20 00:32:44;;;;;;;9.88;3.88;;;21.30;99.90;;;;;;4178016;28;20037;-64
2023/07/20 00:34:45;;;;;;;8.68;3.95;;;21.30;99.90;;;;;;4178537;28;20094;-64
2023/07/20 00:36:48;;;;;;;5.25;3.00;;;21.30;99.90;;;;;;4177963;28;20461;-62
2023/07/20 00:38:49;;;;;;;7.88;3.80;;;21.30;99.90;;;;;;4178814;28;20087;-63
2023/07/20 00:40:51;;;;;;;6.65;4.00;;;21.30;99.90;;;;;;4177887;28;20033;-64
2023/07/20 00:42:52;;;;;;;6.70;3.90;;;21.30;99.90;;;;;;4179055;28;20461;-63
2023/07/20 00:44:53;;;;;;;6.15;3.75;;;21.30;99.90;;;;;;4176706;28;20075;-63
2023/07/20 00:46:55;;;;;;;5.25;3.45;;;21.20;99.90;;;;;;4178289;28;20033;-65
2023/07/20 00:48:56;;;;;;;6.47;4.03;;;21.20;99.90;;;;;;4177732;28;20378;-72
2023/07/20 00:50:59;;;;;;;6.97;3.13;;;21.20;99.90;;;;;;4177857;28;20443;-62
2023/07/20 00:53:04;;;;;;;6.35;3.60;;;21.20;99.90;;;;;;4177857;28;20087;-64
2023/07/20 00:55:08;;;;;;;7.18;3.70;;;21.20;99.90;;;;;;4178776;28;20099;-63
2023/07/20 00:57:09;;;;;;;6.30;3.78;;;21.20;99.90;;;;;;4176731;28;20455;-67
2023/07/20 00:59:11;;;;;;;8.85;4.18;;;21.20;99.90;;;;;;4177906;28;20103;-63
2023/07/20 01:01:12;;;;;;;6.20;3.13;;;21.20;99.90;;;;;;4177645;28;20426;-70
2023/07/20 01:03:14;;;;;;;6.60;3.55;;;21.10;99.90;;;;;;4177565;28;20040;-63
2023/07/20 01:05:18;;;;;;;9.43;3.58;;;21.10;99.90;;;;;;4177103;28;20040;-62
2023/07/20 01:07:43;;;;;;;9.07;3.75;;;21.10;99.90;;;;;;4177497;28;20457;-63
2023/07/20 01:09:57;;;;;;;11.20;4.25;;;21.10;99.90;;;;;;4177423;28;20531;-63
2023/07/20 01:11:58;;;;;;;9.85;3.97;;;21.10;99.90;;;;;;4172260;28;20477;-62
2023/07/20 01:14:00;;;;;;;6.25;3.58;;;21.00;99.90;;;;;;4176647;28;20114;-63
2023/07/20 01:16:01;;;;;;;7.63;3.28;;;21.00;99.90;;;;;;4178079;28;20519;-63
2023/07/20 01:18:04;;;;;;;6.50;3.92;;;21.00;99.90;;;;;;4177660;28;20381;-63
2023/07/20 01:20:13;;;;;;;7.35;3.88;;;20.90;99.90;;;;;;4128092;28;1410911;-63
2023/07/20 01:22:20;;;;;;;8.45;4.05;;;20.90;99.90;;;;;;4178240;28;20041;-63
2023/07/20 01:24:55;;;;;;;6.40;4.15;;;20.80;99.90;;;;;;4178073;28;20049;-62
2023/07/20 01:27:33;;;;;;;9.52;3.88;;;20.80;99.90;;;;;;4178384;28;20029;-64
2023/07/20 01:29:50;;;;;;;6.68;3.83;;;20.80;99.90;;;;;;4178868;28;20033;-63
2023/07/20 01:31:54;;;;;;;9.18;4.30;;;20.70;99.90;;;;;;4177991;28;20029;-63
2023/07/20 01:34:00;;;;;;;7.60;4.57;;;20.70;99.90;;;;;;4178958;28;20037;-63
2023/07/20 01:36:03;;;;;;;8.38;3.83;;;20.70;99.90;;;;;;4177304;28;20143;-62
2023/07/20 01:38:05;;;;;;;5.65;3.80;;;20.70;99.90;;;;;;4178967;28;20078;-62
2023/07/20 01:40:08;;;;;;;7.15;3.63;;;20.70;99.90;;;;;;4177652;28;20045;-64
2023/07/20 01:42:09;;;;;;;6.68;4.15;;;20.70;99.90;;;;;;4178798;28;20079;-63
2023/07/20 01:44:10;;;;;;;7.47;3.70;;;20.70;99.90;;;;;;4177313;28;20037;-63
2023/07/20 01:46:11;;;;;;;5.00;3.50;;;20.70;99.90;;;;;;4177580;28;20037;-63
2023/07/20 01:48:13;;;;;;;8.52;3.65;;;20.60;99.90;;;;;;4178233;28;20091;-63
2023/07/20 01:50:14;;;;;;;9.77;3.58;;;20.60;99.90;;;;;;4177573;28;20511;-63
2023/07/20 01:52:15;;;;;;;8.50;3.97;;;20.60;99.90;;;;;;4178188;28;20033;-63
2023/07/20 01:54:16;;;;;;;7.85;3.58;;;20.60;99.90;;;;;;4177183;28;20443;-62
2023/07/20 01:56:17;;;;;;;9.55;3.55;;;20.50;99.90;;;;;;4178821;28;20094;-64
2023/07/20 01:58:19;;;;;;;5.25;3.33;;;20.50;99.90;;;;;;4177400;28;20174;-63
2023/07/20 02:00:23;;;;;;;6.63;3.65;;;20.50;99.90;;;;;;4177936;28;20091;-63
2023/07/20 02:02:27;;;;;;;11.68;4.03;;;20.50;99.90;;;;;;4177146;28;20454;-63
2023/07/20 02:04:28;;;;;;;5.63;3.42;;;20.50;99.90;;;;;;4178610;28;20541;-71
2023/07/20 02:06:29;;;;;;;10.27;3.35;;;20.40;99.90;;;;;;4176708;28;20086;-63
2023/07/20 02:08:30;;;;;;;9.23;3.95;;;20.40;99.90;;;;;;4178619;28;20037;-65
2023/07/20 02:10:31;;;;;;;9.75;3.50;;;20.40;99.90;;;;;;4159490;28;20041;-63
2023/07/20 02:12:32;;;;;;;8.18;3.85;;;20.40;99.90;;;;;;4177581;28;20087;-62
2023/07/20 02:14:33;;;;;;;6.57;3.92;;;20.40;99.90;;;;;;4176656;28;20115;-62
2023/07/20 02:16:35;;;;;;;6.75;3.85;;;20.40;99.90;;;;;;4176996;28;20095;-64
2023/07/20 02:18:36;;;;;;;7.22;3.92;;;20.40;99.90;;;;;;4177727;28;20488;-64
2023/07/20 02:20:37;;;;;;;8.65;3.33;;;20.40;99.90;;;;;;4177407;28;20037;-63
2023/07/20 02:22:39;;;;;;;5.78;3.75;;;20.40;99.90;;;;;;4177986;28;20094;-63
2023/07/20 02:24:40;;;;;;;8.02;3.63;;;20.40;99.90;;;;;;4176436;28;20033;-68
2023/07/20 02:26:42;;;;;;;6.60;3.85;;;20.30;99.90;;;;;;4178250;28;20119;-72
2023/07/20 02:28:43;;;;;;;6.18;3.38;;;20.30;99.90;;;;;;4176994;28;20079;-63
2023/07/20 02:30:44;;;;;;;6.30;3.55;;;20.30;99.90;;;;;;4177520;28;20110;-63
2023/07/20 02:32:48;;;;;;;6.85;3.65;;;20.30;99.90;;;;;;4175763;28;20515;-63
2023/07/20 02:34:49;;;;;;;7.43;3.67;;;20.30;99.90;;;;;;4159663;28;20057;-63
2023/07/20 02:36:50;;;;;;;5.53;3.00;;;20.30;99.90;;;;;;4175949;28;20455;-63
2023/07/20 02:38:51;;;;;;;7.68;3.50;;;20.30;99.90;;;;;;4178149;28;20029;-66
2023/07/20 02:40:53;;;;;;;7.88;3.08;;;20.30;99.90;;;;;;4176521;28;20087;-64
2023/07/20 02:42:54;;;;;;;9.02;3.35;;;20.30;99.90;;;;;;4177825;28;20102;-64
2023/07/20 02:44:55;;;;;;;6.30;2.90;;;20.30;99.90;;;;;;4158894;28;20123;-64
2023/07/20 02:46:56;;;;;;;8.80;3.70;;;20.30;99.90;;;;;;4177470;28;20074;-63
2023/07/20 02:48:57;;;;;;;11.75;3.78;;;20.30;99.90;;;;;;4176884;28;20178;-63
2023/07/20 02:50:59;;;;;;;7.03;3.67;;;20.30;99.90;;;;;;4176302;28;20040;-63
2023/07/20 02:53:00;;;;;;;5.97;3.53;;;20.40;99.90;;;;;;4177520;28;20456;-64
2023/07/20 02:55:01;;;;;;;6.57;3.80;;;20.30;99.90;;;;;;4158344;28;20041;-63
2023/07/20 02:57:03;;;;;;;7.15;2.88;;;20.40;99.90;;;;;;4176580;28;20037;-63
2023/07/20 02:59:04;;;;;;;6.95;3.72;;;20.40;99.90;;;;;;4176559;28;20102;-63
2023/07/20 03:01:05;;;;;;;8.85;3.38;;;20.40;99.90;;;;;;4177328;28;21122;-63
2023/07/20 03:03:09;;;;;;;8.02;3.78;;;20.40;99.90;;;;;;4176549;28;20086;-63
2023/07/20 03:05:10;;;;;;;7.20;5.15;;;20.40;99.90;;;;;;4177447;28;20083;-63
2023/07/20 03:07:11;;;;;;;16.52;4.80;;;20.40;99.90;;;;;;4175505;28;20091;-63
2023/07/20 03:09:12;;;;;;;13.73;5.72;;;20.40;99.90;;;;;;4177769;28;20029;-71
2023/07/20 03:11:18;;;;;;;7.78;4.35;;;20.30;99.90;;;;;;4176314;28;20445;-64
2023/07/20 03:13:19;;;;;;;16.13;5.47;;;20.20;99.90;;;;;;4177306;28;20497;-64
2023/07/20 03:15:20;;;;;;;15.90;5.15;;;20.20;99.90;;;;;;4175965;28;20045;-63
2023/07/20 03:17:21;;;;;;;6.07;4.00;;;20.00;99.90;;;;;;4175721;28;20190;-63
2023/07/20 03:19:22;;;;;;;11.60;4.88;;;19.90;99.90;;;;;;4176306;28;20021;-63
2023/07/20 03:21:23;;;;;;;10.88;5.18;;;19.90;99.90;;;;;;4176776;28;20103;-63
2023/07/20 03:23:26;;;;;;;8.57;4.93;;;20.00;99.90;;;;;;4176266;28;20094;-63
2023/07/20 03:25:27;;;;;;;9.00;5.25;;;20.20;99.90;;;;;;4176352;28;20036;-63
2023/07/20 03:27:29;;;;;;;8.80;4.50;;;20.30;99.90;;;;;;4158457;28;20460;-63
2023/07/20 03:29:32;;;;;;;13.60;5.78;;;20.40;99.90;;;;;;4175793;28;20040;-63
2023/07/20 03:31:34;;;;;;;8.23;4.80;;;20.60;99.90;;;;;;4176679;28;20079;-63
2023/07/20 03:33:35;;;;;;;9.23;5.25;;;20.70;99.90;;;;;;4175768;28;20086;-63
2023/07/20 03:35:36;;;;;;;11.15;5.95;;;20.80;99.90;;;;;;4177422;28;20033;-65
2023/07/20 03:37:38;;;;;;;10.90;6.28;;;21.00;99.90;;;;;;4175497;28;20091;-63
2023/07/20 03:39:39;;;;;;;11.23;6.05;;;21.10;99.90;;;;;;4158930;28;20480;-63
2023/07/20 03:41:40;;;;;;;10.60;6.40;;;21.10;99.90;;;;;;4175033;28;20037;-62
2023/07/20 03:43:41;;;;;;;9.52;5.60;;;21.20;99.90;;;;;;4177102;28;20099;-63
2023/07/20 03:45:42;;;;;;;10.18;6.15;;;21.20;99.90;;;;;;4175725;28;20029;-63
2023/07/20 03:47:44;;;;;;;10.00;7.05;;;21.40;99.90;;;;;;4176587;28;20033;-63
2023/07/20 03:49:45;;;;;;;12.85;6.20;;;21.50;99.90;;;;;;4158203;28;20087;-64
2023/07/20 03:51:46;;;;;;;12.55;6.20;;;21.90;99.90;;;;;;4175926;28;20428;-62
2023/07/20 03:53:47;;;;;;;9.88;6.38;;;22.20;99.90;;;;;;4176571;28;20029;-63
2023/07/20 03:55:51;;;;;;;9.10;5.90;;;22.30;99.90;;;;;;4176189;28;20088;-63
2023/07/20 03:57:52;;;;;;;10.02;6.45;;;22.40;99.90;;;;;;4158770;28;20029;-62
2023/07/20 03:59:54;;;;;;;8.45;6.22;;;22.60;99.90;;;;;;4175920;28;20072;-66
2023/07/20 04:01:55;;;;;;;10.80;5.60;;;22.70;99.90;;;;;;4176136;28;20076;-64
2023/07/20 04:03:57;;;;;;;11.15;5.43;;;22.50;99.90;;;;;;4175712;28;20044;-63
2023/07/20 04:05:58;;;;;;;12.20;5.90;;;22.50;99.90;;;;;;4175575;28;20106;-61
2023/07/20 04:07:59;;;;;;;7.47;5.50;;;22.70;99.90;;;;;;4175231;28;20392;-67
2023/07/20 04:10:00;;;;;;;10.38;5.22;;;23.20;99.90;;;;;;4176498;28;20511;-63
2023/07/20 04:12:02;;;;;;;11.63;5.38;;;23.70;99.90;;;;;;4175443;28;20028;-65
2023/07/20 04:14:03;;;;;;;9.82;6.20;;;24.20;99.90;;;;;;4176909;28;20476;-62
2023/07/20 04:16:04;;;;;;;8.93;5.75;;;24.50;99.90;;;;;;4174732;28;20057;-61
2023/07/20 04:18:05;;;;;;;9.23;5.63;;;24.70;99.90;;;;;;4176943;28;20040;-62
2023/07/20 04:20:07;;;;;;;8.48;5.55;;;24.90;99.90;;;;;;4175889;28;20435;-62
2023/07/20 04:22:08;;;;;;;10.43;5.22;;;25.00;99.90;;;;;;4176020;28;20464;-61
2023/07/20 04:24:10;;;;;;;9.77;5.30;;;25.00;99.90;;;;;;4175433;28;20021;-61
2023/07/20 04:26:12;;;;;;;12.27;5.68;;;25.10;99.90;;;;;;4173419;28;20103;-60
2023/07/20 04:28:13;;;;;;;12.30;6.10;;;25.20;99.90;;;;;;4175863;28;20049;-63
2023/07/20 04:30:20;;;;;;;11.98;6.25;;;25.50;99.90;;;;;;4175185;28;20040;-62
2023/07/20 04:32:21;;;;;;;9.77;5.45;;;25.70;99.90;;;;;;4176330;28;20034;-64
2023/07/20 04:34:22;;;;;;;7.72;5.35;;;25.50;99.90;;;;;;4158236;28;20535;-66
2023/07/20 04:36:23;;;;;;;10.38;5.70;;;25.20;99.90;;;;;;4175659;28;20041;-67
2023/07/20 04:38:24;;;;;;;10.25;5.38;;;25.00;99.90;;;;;;4175462;28;20025;-64
2023/07/20 04:40:25;;;;;;;13.02;6.10;;;24.90;99.90;;;;;;4178684;28;20048;-66
2023/07/20 04:42:26;;;;;;;10.98;5.13;;;24.80;99.90;;;;;;4178784;28;20037;-62
2023/07/20 04:44:28;;;;;;;8.80;5.85;;;24.70;99.90;;;;;;4179115;28;20037;-66
2023/07/20 04:46:29;;;;;;;12.68;6.47;;;24.70;99.90;;;;;;4178005;28;20400;-64
2023/07/20 04:48:30;;;;;;;12.35;6.18;;;24.60;99.90;;;;;;4161385;28;20084;-63
2023/07/20 04:50:31;;;;;;;15.23;6.28;;;24.50;99.90;;;;;;4177909;28;20098;-72
2023/07/20 04:52:32;;;;;;;10.10;4.70;;;24.40;99.90;;;;;;4178748;28;20470;-66
2023/07/20 04:54:33;;;;;;;10.60;5.10;;;24.80;99.90;;;;;;4178084;28;20025;-65
2023/07/20 04:56:34;;;;;;;9.70;5.88;;;25.30;99.90;;;;;;4159710;28;20099;-63
2023/07/20 04:58:35;;;;;;;10.40;5.10;;;25.80;99.90;;;;;;4176459;28;20071;-68
2023/07/20 05:00:38;;;;;;;10.05;5.65;;;26.60;99.90;;;;;;4178210;28;20087;-63
2023/07/20 05:02:39;;;;;;;7.40;5.10;;;27.10;99.90;;;;;;4178835;28;20416;-68
2023/07/20 05:04:40;;;;;;;12.32;5.60;;;27.60;99.90;;;;;;4178571;28;20170;-67
2023/07/20 05:06:41;;;;;;;11.07;5.15;;;28.10;99.90;;;;;;4175502;28;20025;-64
2023/07/20 05:08:42;;;;;;;13.88;5.85;;;28.30;99.90;;;;;;4176244;28;20128;-62
2023/07/20 05:10:44;;;;;;;12.27;4.88;;;28.20;99.90;;;;;;4187432;28;20111;-64
2023/07/20 05:12:45;;;;;;;7.97;4.90;;;28.00;99.90;;;;;;4194900;28;20074;-64
2023/07/20 05:14:46;;;;;;;14.02;5.25;;;27.70;99.90;;;;;;4195545;28;20086;-65
2023/07/20 05:16:47;;;;;;;12.80;5.90;;;27.70;99.90;;;;;;4193461;28;20040;-63
2023/07/20 05:18:48;;;;;;;13.57;5.47;;;27.60;99.90;;;;;;4195663;28;20090;-65
2023/07/20 05:20:50;;;;;;;11.95;5.30;;;27.50;99.90;;;;;;4194139;28;20411;-64
2023/07/20 05:22:52;;;;;;;15.80;5.88;;;27.40;99.90;;;;;;4176524;28;20071;-62
2023/07/20 05:24:53;;;;;;;15.70;6.60;;;27.50;99.90;;;;;;4194693;28;20471;-67
2023/07/20 05:26:54;;;;;;;12.55;6.07;;;27.60;99.90;;;;;;4194954;28;20040;-64
2023/07/20 05:28:55;;;;;;;12.38;5.40;;;27.70;99.90;;;;;;4193983;28;20090;-61
2023/07/20 05:30:59;;;;;;;15.25;6.85;;;27.80;99.90;;;;;;4176983;28;20048;-64
2023/07/20 05:33:01;;;;;;;11.68;5.25;;;27.90;99.90;;;;;;4176033;28;20041;-61
2023/07/20 05:35:03;;;;;;;11.60;5.47;;;28.00;99.90;;;;;;4173650;28;20444;-62
2023/07/20 05:37:04;;;;;;;10.57;5.18;;;27.70;99.90;;;;;;4181863;28;20075;-65
2023/07/20 05:39:05;;;;;;;11.73;5.38;;;27.40;99.90;;;;;;4182458;28;20083;-62
2023/07/20 05:41:10;;;;;;;11.55;5.93;;;26.90;99.90;;;;;;4179548;28;20098;-62
2023/07/20 05:43:11;;;;;;;11.40;5.75;;;26.50;99.90;;;;;;4179112;28;20465;-64
2023/07/20 05:45:12;;;;;;;14.02;5.65;;;26.10;99.90;;;;;;4181678;28;20074;-64
2023/07/20 05:47:13;;;;;;;15.07;6.13;;;25.80;99.90;;;;;;4181818;28;20762;-60
2023/07/20 05:49:15;;;;;;;16.60;5.80;;;25.50;99.90;;;;;;4182393;28;20147;-64
2023/07/20 05:51:16;;;;;;;13.18;6.00;;;25.30;99.90;;;;;;4173465;28;20045;-62
2023/07/20 05:53:17;;;;;;;11.93;5.85;;;25.50;99.90;;;;;;4184396;28;20053;-65
2023/07/20 05:55:18;;;;;;;18.52;6.18;;;26.00;99.90;;;;;;4155927;28;20057;-60
2023/07/20 05:57:19;;;;;;;11.70;6.18;;;26.40;99.90;;;;;;4179487;28;20032;-61
2023/07/20 05:59:20;;;;;;;12.02;6.30;;;26.60;99.90;;;;;;4177821;28;20078;-61
2023/07/20 06:01:22;;;;;;;12.63;6.03;;;26.80;99.90;;;;;;4186176;28;20048;-63
2023/07/20 06:03:23;;;;;;;25.25;7.22;;;27.10;99.90;;;;;;4174852;28;20480;-64
2023/07/20 06:05:24;;;;;;;17.00;6.10;;;27.50;99.90;;;;;;4185521;28;20033;-62
2023/07/20 06:07:26;;;;;;;17.23;6.03;;;27.70;99.90;;;;;;4152751;28;20033;-63
2023/07/20 06:09:27;;;;;;;12.73;5.45;;;28.40;99.90;;;;;;4167088;28;20041;-62
2023/07/20 06:11:28;;;;;;;8.18;4.85;;;28.70;99.90;;;;;;4178282;28;20059;-63
2023/07/20 06:13:30;;;;;;;15.90;5.22;;;29.10;99.90;;;;;;4176751;28;20079;-63
2023/07/20 06:15:34;;;;;;;12.70;5.22;;;29.40;99.90;;;;;;4183148;28;20166;-63
2023/07/20 06:17:35;;;;;;;16.05;5.00;;;29.50;99.90;;;;;;4176269;28;20114;-62
2023/07/20 06:19:44;;;;;;;13.98;4.95;;;29.40;99.90;;;;;;4088218;28;20122;-63
2023/07/20 06:21:52;;;;;;;12.43;4.70;;;29.40;99.90;;;;;;4085074;28;20536;-62
2023/07/20 06:24:01;;;;;;;9.32;4.00;;;29.00;99.90;;;;;;4074776;28;20040;-63
2023/07/20 06:26:02;;;;;;;9.85;4.50;;;28.80;99.90;;;;;;4077092;28;20461;-63
2023/07/20 06:28:04;;;;;;;13.10;4.40;;;29.10;99.90;;;;;;4106208;28;20074;-63
2023/07/20 06:30:06;;;;;;;12.45;4.43;;;29.40;99.90;;;;;;4192422;28;20040;-62
2023/07/20 06:32:11;;;;;;;18.80;4.95;;;29.80;99.90;;;;;;4049817;28;20037;-64
2023/07/20 06:34:14;;;;;;;9.95;4.65;;;29.90;99.90;;;;;;4068117;28;21386;-62
2023/07/20 06:36:27;;;;;;;11.98;5.03;;;30.00;99.90;;;;;;4031773;28;20061;-63
2023/07/20 06:38:29;;;;;;;10.35;3.95;;;30.10;99.90;;;;;;4037821;28;20026;-63
2023/07/20 06:40:30;;;;;;;11.65;4.07;;;30.20;99.90;;;;;;4055865;28;20995;-62
2023/07/20 06:42:32;;;;;;;6.60;3.65;;;30.20;99.90;;;;;;4155388;28;20084;-64
2023/07/20 06:44:33;;;;;;;8.10;3.60;;;30.30;99.90;;;;;;4176894;28;20037;-63
2023/07/20 06:46:34;;;;;;;11.70;4.05;;;30.50;99.90;;;;;;4159032;28;20041;-66
2023/07/20 06:48:35;;;;;;;12.55;3.63;;;30.90;99.90;;;;;;4175855;28;20452;-65
2023/07/20 06:50:36;;;;;;;10.98;3.75;;;31.30;99.90;;;;;;4176374;28;20083;-65
2023/07/20 06:52:37;;;;;;;10.80;3.55;;;31.40;99.90;;;;;;4176329;28;20033;-63
2023/07/20 06:54:38;;;;;;;8.07;3.42;;;31.40;99.90;;;;;;4177662;28;20440;-63
2023/07/20 06:56:39;;;;;;;10.00;3.45;;;31.30;99.90;;;;;;4176225;28;20408;-63
2023/07/20 06:58:41;;;;;;;6.50;3.50;;;31.40;99.90;;;;;;4177555;28;20021;-63
2023/07/20 07:00:42;;;;;;;13.00;3.88;;;31.50;99.90;;;;;;4176124;28;20059;-63
2023/07/20 07:02:43;;;;;;;10.85;4.22;;;31.70;99.90;;;;;;4177417;28;20036;-63
2023/07/20 07:04:46;;;;;;;9.38;2.92;;;32.20;99.90;;;;;;4175682;28;20044;-63
2023/07/20 07:06:48;;;;;;;5.28;3.90;;;32.70;98.90;;;;;;4176421;28;20033;-63
2023/07/20 07:08:49;;;;;;;7.97;3.58;;;32.50;98.50;;;;;;4157950;28;20513;-64
2023/07/20 07:10:50;;;;;;;12.07;3.58;;;32.00;98.50;;;;;;4176461;28;20186;-64
2023/07/20 07:12:51;;;;;;;7.95;3.85;;;31.50;98.80;;;;;;4174337;28;20032;-62
2023/07/20 07:14:53;;;;;;;8.65;3.45;;;31.10;99.20;;;;;;4176574;28;20066;-62
2023/07/20 07:16:54;;;;;;;7.55;3.60;;;30.80;99.40;;;;;;4158092;28;20572;-63
2023/07/20 07:18:55;;;;;;;9.35;3.28;;;30.70;99.50;;;;;;4176180;28;20079;-63
2023/07/20 07:20:56;;;;;;;9.30;3.53;;;30.90;99.60;;;;;;4177210;28;20103;-63
2023/07/20 07:22:58;;;;;;;6.90;3.67;;;31.50;99.10;;;;;;4158518;28;20449;-63
2023/07/20 07:24:59;;;;;;;7.63;3.83;;;31.60;98.60;;;;;;4177392;28;20032;-65
2023/07/20 07:27:01;;;;;;;13.55;4.40;;;30.60;98.20;;;;;;4176285;28;20040;-64
2023/07/20 07:29:03;;;;;;;8.82;4.10;;;29.50;99.40;;;;;;4177469;28;20416;-63
2023/07/20 07:31:07;;;;;;;10.35;4.03;;;29.10;99.90;;;;;;4175806;28;20040;-64
2023/07/20 07:33:09;;;;;;;6.72;3.50;;;28.20;99.90;;;;;;4176836;28;20029;-64
2023/07/20 07:35:11;;;;;;;16.30;4.82;;;28.80;99.90;;;;;;4176771;28;20029;-64
2023/07/20 07:37:13;;;;;;;4.78;3.20;;;29.90;99.90;;;;;;4177216;28;20083;-64
2023/07/20 07:39:14;;;;;;;12.43;4.40;;;30.40;99.70;;;;;;4175938;28;20445;-65
2023/07/20 07:41:15;;;;;;;8.25;3.78;;;30.20;99.10;;;;;;4176379;28;20033;-64
2023/07/20 07:43:16;;;;;;;10.10;3.78;;;29.00;99.90;;;;;;4176177;28;20132;-65
2023/07/20 07:45:17;;;;;;;8.40;4.53;;;28.80;99.90;;;;;;4176849;28;20423;-66
2023/07/20 07:47:18;;;;;;;14.00;3.90;;;29.30;99.90;;;;;;4175716;28;20370;-65
2023/07/20 07:49:19;;;;;;;9.43;4.75;;;28.80;99.90;;;;;;4176259;28;20082;-64
2023/07/20 07:51:20;;;;;;;12.82;4.47;;;29.10;99.90;;;;;;4158496;28;20059;-64
2023/07/20 07:53:22;;;;;;;12.93;3.97;;;29.90;99.80;;;;;;4175119;28;20404;-63
2023/07/20 07:55:26;;;;;;;13.18;4.78;;;30.70;99.10;;;;;;4176928;28;20024;-63
2023/07/20 07:57:27;;;;;;;10.52;4.22;;;31.10;98.20;;;;;;4157645;28;20037;-63
2023/07/20 07:59:30;;;;;;;24.05;5.43;;;30.30;98.30;;;;;;4177153;28;20033;-66
2023/07/20 08:01:32;;;;;;;18.75;4.93;;;29.60;99.30;;;;;;4175903;28;20029;-64
2023/07/20 08:03:33;;;;;;;16.85;4.72;;;29.40;99.50;;;;;;4176210;28;20037;-65
2023/07/20 08:05:35;;;;;;;17.80;5.68;;;29.70;99.10;;;;;;4176169;28;20037;-66
2023/07/20 08:07:37;;;;;;;19.83;5.40;;;30.20;98.80;;;;;;4177037;28;20021;-62
2023/07/20 08:09:38;;;;;;;13.40;4.05;;;30.50;98.40;;;;;;4174933;28;20547;-65
2023/07/20 08:11:39;;;;;;;9.20;3.85;;;30.90;97.90;;;;;;4176142;28;20125;-63
2023/07/20 08:13:41;;;;;;;10.07;3.97;;;30.70;97.40;;;;;;4174561;28;20095;-62
2023/07/20 08:15:51;;;;;;;11.48;3.47;;;30.70;97.30;;;;;;4179126;28;20425;-65
2023/07/20 08:17:52;;;;;;;9.15;3.53;;;31.10;96.60;;;;;;4161159;28;20140;-66
2023/07/20 08:19:53;;;;;;;12.23;3.22;;;31.70;96.50;;;;;;4179228;28;20033;-65
2023/07/20 08:21:55;;;;;;;9.98;3.80;;;30.80;95.90;;;;;;4179430;28;20178;-67
2023/07/20 08:23:56;;;;;;;18.25;3.67;;;30.60;96.40;;;;;;4178978;28;20029;-64
2023/07/20 08:25:57;;;;;;;9.30;3.00;;;30.30;97.00;;;;;;4179803;28;20110;-68
2023/07/20 08:28:00;;;;;;;14.88;3.97;;;30.50;95.80;;;;;;4177678;28;20481;-65
2023/07/20 08:30:02;;;;;;;7.82;3.17;;;30.30;96.50;;;;;;4179083;28;20412;-64
2023/07/20 08:32:04;;;;;;;5.10;3.08;;;31.10;96.00;;;;;;4161748;28;20099;-63
2023/07/20 08:34:06;;;;;;;8.52;2.85;;;31.60;95.30;;;;;;4169318;28;20032;-64
2023/07/20 08:36:07;;;;;;;8.55;2.78;;;31.60;94.50;;;;;;4178592;28;20057;-65
2023/07/20 08:38:09;;;;;;;9.05;2.85;;;31.30;93.90;;;;;;4179191;28;20110;-65
2023/07/20 08:40:10;;;;;;;4.95;2.30;;;31.50;93.60;;;;;;4159714;28;20037;-67
2023/07/20 08:42:14;;;;;;;13.15;3.42;;;31.20;93.50;;;;;;4178943;28;20017;-69
2023/07/20 08:44:15;;;;;;;10.02;3.90;;;30.40;97.60;;;;;;4178385;28;20350;-65
2023/07/20 08:46:17;;;;;;;4.57;3.50;;;29.50;99.10;;;;;;4178439;28;20473;-68
2023/07/20 08:48:20;;;;;;;13.13;2.97;;;29.10;99.80;;;;;;4176795;28;20029;-70
2023/07/20 08:50:22;;;;;;;9.75;3.90;;;29.10;98.10;;;;;;4166911;28;20025;-64
2023/07/20 08:52:23;;;;;;;9.52;3.67;;;29.10;99.90;;;;;;4178090;28;20071;-70
2023/07/20 08:54:29;;;;;;;6.13;4.13;;;28.80;99.90;;;;;;4178304;28;20021;-63
2023/07/20 08:56:33;;;;;;;7.13;4.10;;;28.60;99.90;;;;;;4173603;28;20053;-64
2023/07/20 08:58:36;;;;;;;10.15;4.55;;;28.50;99.90;;;;;;4170872;28;20481;-63
2023/07/20 09:00:37;;;;;;;8.55;4.20;;;28.60;99.90;;;;;;4178588;28;20083;-63
2023/07/20 09:02:43;;;;;;;12.38;4.22;;;28.90;99.90;;;;;;4177664;28;20098;-63
2023/07/20 09:04:45;;;;;;;9.65;4.82;;;28.50;99.90;;;;;;4178574;28;20037;-63
2023/07/20 09:06:47;;;;;;;8.00;3.95;;;28.00;99.90;;;;;;4175749;28;20071;-63
2023/07/20 09:08:48;;;;;;;5.28;3.95;;;27.90;99.90;;;;;;4181596;28;20032;-65
2023/07/20 09:10:50;;;;;;;7.10;3.90;;;27.40;99.90;;;;;;4176521;28;20634;-65
2023/07/20 09:12:51;;;;;;;9.25;3.85;;;27.50;99.90;;;;;;4177513;28;20033;-64
2023/07/20 09:14:52;;;;;;;6.93;4.47;;;27.60;99.90;;;;;;4177123;28;20443;-64
2023/07/20 09:16:55;;;;;;;20.50;5.63;;;27.50;99.90;;;;;;4178157;28;20052;-64
2023/07/20 09:18:58;;;;;;;9.70;2.95;;;27.70;99.90;;;;;;4176776;28;20025;-63
2023/07/20 09:21:02;;;;;;;9.65;3.03;;;27.60;99.90;;;;;;4177082;28;20052;-62
2023/07/20 09:23:06;;;;;;;8.27;3.25;;;27.90;99.90;;;;;;4176643;28;20082;-63
2023/07/20 09:25:13;;;;;;;8.70;3.30;;;28.00;99.90;;;;;;4186981;28;20040;-62
2023/07/20 09:27:14;;;;;;;5.40;3.10;;;28.00;99.90;;;;;;4176476;28;20017;-61
2023/07/20 09:29:18;;;;;;;8.63;3.63;;;28.10;99.90;;;;;;4177618;28;20555;-62
2023/07/20 09:31:21;;;;;;;5.47;2.90;;;28.10;99.90;;;;;;4176506;28;20392;-62
2023/07/20 09:33:22;;;;;;;7.78;3.05;;;28.10;99.90;;;;;;4177974;28;20457;-62
2023/07/20 09:35:24;;;;;;;7.97;4.30;;;28.20;99.80;;;;;;4177561;28;20033;-62
2023/07/20 09:37:26;;;;;;;5.20;3.20;;;28.30;99.90;;;;;;4160990;28;20179;-63
2023/07/20 09:39:28;;;;;;;5.53;3.13;;;28.50;99.90;;;;;;4143950;28;20501;-64
2023/07/20 09:41:30;;;;;;;4.90;2.45;;;28.60;99.90;;;;;;4161246;28;20083;-63
2023/07/20 09:43:33;;;;;;;4.80;2.80;;;28.70;99.70;;;;;;4166282;28;20507;-63
2023/07/20 09:45:42;;;;;;;3.83;2.85;;;29.00;99.50;;;;;;4176029;28;20128;-63
2023/07/20 09:47:43;;;;;;;6.40;3.42;;;29.20;98.60;;;;;;4161400;28;20037;-63
2023/07/20 09:49:44;;;;;;;5.90;3.50;;;29.30;99.70;;;;;;4161092;28;20631;-62
2023/07/20 09:51:46;;;;;;;4.22;3.22;;;28.80;99.90;;;;;;4169810;28;20079;-62
2023/07/20 09:53:49;;;;;;;6.88;3.72;;;28.20;99.90;;;;;;4176333;28;20106;-63
2023/07/20 09:55:50;;;;;;;5.22;3.20;;;27.90;99.90;;;;;;4178313;28;20083;-63
2023/07/20 09:57:53;;;;;;;5.05;3.28;;;27.70;99.90;;;;;;4159071;28;20064;-63
2023/07/20 09:59:54;;;;;;;4.88;3.00;;;27.70;99.90;;;;;;4176890;28;20128;-63
2023/07/20 10:01:59;;;;;;;3.28;2.85;;;27.90;99.90;;;;;;4176899;28;20033;-62
2023/07/20 10:04:04;;;;;;;5.82;2.88;;;28.20;99.90;;;;;;4177169;28;20033;-62
2023/07/20 10:06:12;;;;;;;4.30;2.90;;;28.40;99.90;;;;;;4177842;28;20492;-62
2023/07/20 10:08:16;;;;;;;4.00;2.83;;;28.70;99.90;;;;;;4171575;28;20044;-62
2023/07/20 10:10:18;;;;;;;7.85;2.55;;;29.00;99.90;;;;;;4176225;28;20489;-62
2023/07/20 10:12:22;;;;;;;3.33;2.85;;;29.00;99.90;;;;;;4176559;28;20052;-62
2023/07/20 10:14:24;;;;;;;3.63;3.10;;;29.00;99.90;;;;;;4176826;28;20086;-63
2023/07/20 10:16:31;;;;;;;5.63;3.17;;;28.80;99.90;;;;;;4176419;28;20432;-62
2023/07/20 10:18:48;;;;;;;4.63;3.03;;;28.80;99.90;;;;;;4177032;28;20029;-63
2023/07/20 10:20:54;;;;;;;9.80;3.10;;;28.80;99.90;;;;;;4166044;28;20598;-64
2023/07/20 10:22:56;;;;;;;9.75;3.00;;;28.80;99.90;;;;;;4161101;28;20087;-62
2023/07/20 10:24:59;;;;;;;6.18;3.08;;;28.90;99.90;;;;;;4174237;28;20087;-63
2023/07/20 10:27:00;;;;;;;7.18;2.78;;;29.10;99.60;;;;;;4177046;28;20031;-63
2023/07/20 10:29:03;;;;;;;4.65;2.30;;;29.30;98.60;;;;;;4176244;28;20500;-63
2023/07/20 10:31:04;;;;;;;6.40;2.70;;;29.50;97.60;;;;;;4175748;28;20033;-63
2023/07/20 10:33:06;;;;;;;5.70;2.78;;;29.60;97.10;;;;;;4175708;28;20045;-63